sensor_id;sensor_type;location;lat;lon;timestamp;pressure;altitude;pressure_sealevel;temperature;humidity
49949;BME280;35840;45.982;8.890;2023-04-28T00:01:36;98673.22;;;13.72;59.31
49949;BME280;35840;45.982;8.890;2023-04-28T00:04:03;98672.41;;;13.71;58.89
49949;BME280;35840;45.982;8.890;2023-04-28T00:06:30;98664.34;;;13.63;59.13
49949;BME280;35840;45.982;8.890;2023-04-28T00:08:57;98666.22;;;13.61;58.93
49949;BME280;35840;45.982;8.890;2023-04-28T00:11:24;98661.16;;;13.59;59.14
49949;BME280;35840;45.982;8.890;2023-04-28T00:13:51;98643.06;;;13.47;59.24
49949;BME280;35840;45.982;8.890;2023-04-28T00:16:17;98656.91;;;13.58;59.15
49949;BME280;35840;45.982;8.890;2023-04-28T00:18:44;98659.28;;;13.49;58.94
49949;BME280;35840;45.982;8.890;2023-04-28T00:21:11;98663.81;;;13.45;60.03
49949;BME280;35840;45.982;8.890;2023-04-28T00:23:38;98658.75;;;13.43;60.29
49949;BME280;35840;45.982;8.890;2023-04-28T00:26:04;98664.03;;;13.42;59.70
49949;BME280;35840;45.982;8.890;2023-04-28T00:28:31;98664.63;;;13.33;60.31
49949;BME280;35840;45.982;8.890;2023-04-28T00:31:01;98669.16;;;13.29;60.46
49949;BME280;35840;45.982;8.890;2023-04-28T00:33:27;98674.78;;;13.36;59.53
49949;BME280;35840;45.982;8.890;2023-04-28T00:35:58;98672.28;;;13.34;59.92
49949;BME280;35840;45.982;8.890;2023-04-28T00:38:26;98667.41;;;13.30;60.69
49949;BME280;35840;45.982;8.890;2023-04-28T00:40:53;98663.28;;;13.27;60.67
49949;BME280;35840;45.982;8.890;2023-04-28T00:43:19;98667.81;;;13.23;60.63
49949;BME280;35840;45.982;8.890;2023-04-28T00:45:50;98670.19;;;13.26;60.39
49949;BME280;35840;45.982;8.890;2023-04-28T00:48:18;98664.41;;;13.23;60.83
49949;BME280;35840;45.982;8.890;2023-04-28T00:50:45;98656.47;;;13.13;60.90
49949;BME280;35840;45.982;8.890;2023-04-28T00:53:13;98657.28;;;13.14;61.22
49949;BME280;35840;45.982;8.890;2023-04-28T00:55:40;98657.06;;;13.04;61.34
49949;BME280;35840;45.982;8.890;2023-04-28T00:58:07;98664.41;;;13.10;61.25
49949;BME280;35840;45.982;8.890;2023-04-28T01:00:34;98643.53;;;13.00;61.71
49949;BME280;35840;45.982;8.890;2023-04-28T01:03:02;98657.28;;;13.14;61.87
49949;BME280;35840;45.982;8.890;2023-04-28T01:05:32;98652.84;;;13.16;61.81
49949;BME280;35840;45.982;8.890;2023-04-28T01:08:00;98655.81;;;13.09;61.71
49949;BME280;35840;45.982;8.890;2023-04-28T01:10:27;98645.00;;;13.04;62.76
49949;BME280;35840;45.982;8.890;2023-04-28T01:13:00;98657.16;;;13.15;62.11
49949;BME280;35840;45.982;8.890;2023-04-28T01:15:27;98661.72;;;13.12;62.42
49949;BME280;35840;45.982;8.890;2023-04-28T01:17:55;98658.28;;;13.11;61.70
49949;BME280;35840;45.982;8.890;2023-04-28T01:20:21;98661.09;;;13.08;62.44
49949;BME280;35840;45.982;8.890;2023-04-28T01:22:48;98646.00;;;13.02;62.51
49949;BME280;35840;45.982;8.890;2023-04-28T01:25:16;98649.94;;;13.07;62.74
49949;BME280;35840;45.982;8.890;2023-04-28T01:27:42;98659.84;;;13.14;62.63
49949;BME280;35840;45.982;8.890;2023-04-28T01:30:09;98659.13;;;13.12;62.29
49949;BME280;35840;45.982;8.890;2023-04-28T01:32:37;98646.00;;;13.02;62.02
49949;BME280;35840;45.982;8.890;2023-04-28T01:35:04;98656.44;;;13.00;61.81
49949;BME280;35840;45.982;8.890;2023-04-28T01:37:33;98654.25;;;12.94;62.71
49949;BME280;35840;45.982;8.890;2023-04-28T01:40:00;98669.56;;;12.97;62.77
49949;BME280;35840;45.982;8.890;2023-04-28T01:42:27;98669.44;;;12.99;62.40
49949;BME280;35840;45.982;8.890;2023-04-28T01:44:53;98673.16;;;12.95;62.93
49949;BME280;35840;45.982;8.890;2023-04-28T01:47:20;98676.84;;;12.90;62.92
49949;BME280;35840;45.982;8.890;2023-04-28T01:49:47;98672.28;;;12.81;62.31
49949;BME280;35840;45.982;8.890;2023-04-28T01:52:15;98671.25;;;12.84;63.10
49949;BME280;35840;45.982;8.890;2023-04-28T01:54:42;98674.16;;;12.79;62.82
49949;BME280;35840;45.982;8.890;2023-04-28T01:57:09;98679.91;;;12.83;63.31
49949;BME280;35840;45.982;8.890;2023-04-28T01:59:36;98681.59;;;12.84;63.40
49949;BME280;35840;45.982;8.890;2023-04-28T02:02:04;98678.50;;;12.79;62.90
49949;BME280;35840;45.982;8.890;2023-04-28T02:04:32;98695.00;;;12.76;62.65
49949;BME280;35840;45.982;8.890;2023-04-28T02:06:59;98687.53;;;12.71;63.57
49949;BME280;35840;45.982;8.890;2023-04-28T02:09:26;98690.19;;;12.70;64.36
49949;BME280;35840;45.982;8.890;2023-04-28T02:11:52;98686.72;;;12.71;64.00
49949;BME280;35840;45.982;8.890;2023-04-28T02:14:20;98692.63;;;12.73;63.47
49949;BME280;35840;45.982;8.890;2023-04-28T02:16:46;98689.28;;;12.71;63.73
49949;BME280;35840;45.982;8.890;2023-04-28T02:19:14;98682.66;;;12.67;64.30
49949;BME280;35840;45.982;8.890;2023-04-28T02:21:41;98685.13;;;12.68;64.18
49949;BME280;35840;45.982;8.890;2023-04-28T02:24:08;98689.09;;;12.74;63.94
49949;BME280;35840;45.982;8.890;2023-04-28T02:26:35;98689.09;;;12.74;63.91
49949;BME280;35840;45.982;8.890;2023-04-28T02:29:02;98689.28;;;12.71;63.88
49949;BME280;35840;45.982;8.890;2023-04-28T02:31:31;98686.47;;;12.61;64.04
49949;BME280;35840;45.982;8.890;2023-04-28T02:33:58;98674.78;;;12.55;64.42
49949;BME280;35840;45.982;8.890;2023-04-28T02:36:25;98680.78;;;12.56;64.21
49949;BME280;35840;45.982;8.890;2023-04-28T02:38:53;98669.41;;;12.58;63.88
49949;BME280;35840;45.982;8.890;2023-04-28T02:41:20;98668.72;;;12.56;63.78
49949;BME280;35840;45.982;8.890;2023-04-28T02:43:46;98655.91;;;12.55;64.62
49949;BME280;35840;45.982;8.890;2023-04-28T02:46:13;98659.41;;;12.54;64.08
49949;BME280;35840;45.982;8.890;2023-04-28T02:48:40;98658.78;;;12.50;64.11
49949;BME280;35840;45.982;8.890;2023-04-28T02:51:09;98664.97;;;12.48;64.50
49949;BME280;35840;45.982;8.890;2023-04-28T02:53:36;98649.75;;;12.43;64.38
49949;BME280;35840;45.982;8.890;2023-04-28T02:56:03;98658.53;;;12.40;64.28
49949;BME280;35840;45.982;8.890;2023-04-28T02:58:31;98645.50;;;12.29;64.50
49949;BME280;35840;45.982;8.890;2023-04-28T03:00:58;98658.19;;;12.32;64.76
49949;BME280;35840;45.982;8.890;2023-04-28T03:03:25;98666.22;;;12.28;64.56
49949;BME280;35840;45.982;8.890;2023-04-28T03:05:52;98665.47;;;12.26;64.86
49949;BME280;35840;45.982;8.890;2023-04-28T03:08:19;98662.81;;;12.27;64.91
49949;BME280;35840;45.982;8.890;2023-04-28T03:10:46;98669.91;;;12.23;65.77
49949;BME280;35840;45.982;8.890;2023-04-28T03:13:13;98673.31;;;12.24;65.85
49949;BME280;35840;45.982;8.890;2023-04-28T03:15:41;98666.78;;;12.18;65.46
49949;BME280;35840;45.982;8.890;2023-04-28T03:18:08;98682.31;;;12.31;66.04
49949;BME280;35840;45.982;8.890;2023-04-28T03:20:34;98683.97;;;12.32;65.47
49949;BME280;35840;45.982;8.890;2023-04-28T03:23:02;98688.28;;;12.32;65.69
49949;BME280;35840;45.982;8.890;2023-04-28T03:25:29;98680.75;;;12.29;66.29
49949;BME280;35840;45.982;8.890;2023-04-28T03:27:56;98678.91;;;12.31;67.06
49949;BME280;35840;45.982;8.890;2023-04-28T03:30:23;98661.50;;;12.34;66.97
49949;BME280;35840;45.982;8.890;2023-04-28T03:32:49;98674.13;;;12.39;66.23
49949;BME280;35840;45.982;8.890;2023-04-28T03:35:17;98671.13;;;12.45;67.08
49949;BME280;35840;45.982;8.890;2023-04-28T03:37:43;98669.28;;;12.47;65.80
49949;BME280;35840;45.982;8.890;2023-04-28T03:40:10;98642.44;;;12.37;66.24
49949;BME280;35840;45.982;8.890;2023-04-28T03:42:57;98659.06;;;12.46;66.73
49949;BME280;35840;45.982;8.890;2023-04-28T03:45:31;98669.47;;;12.44;66.88
49949;BME280;35840;45.982;8.890;2023-04-28T03:47:58;98661.75;;;12.44;66.91
49949;BME280;35840;45.982;8.890;2023-04-28T03:50:25;98662.28;;;12.49;65.96
49949;BME280;35840;45.982;8.890;2023-04-28T03:52:53;98659.72;;;12.49;66.58
49949;BME280;35840;45.982;8.890;2023-04-28T03:55:20;98644.94;;;12.51;66.44
49949;BME280;35840;45.982;8.890;2023-04-28T03:57:47;98638.44;;;12.46;66.42
49949;BME280;35840;45.982;8.890;2023-04-28T04:00:16;98626.25;;;12.35;66.44
49949;BME280;35840;45.982;8.890;2023-04-28T04:02:45;98647.19;;;12.43;66.90
49949;BME280;35840;45.982;8.890;2023-04-28T04:05:14;98662.44;;;12.61;65.88
49949;BME280;35840;45.982;8.890;2023-04-28T04:07:41;98660.47;;;12.64;67.52
49949;BME280;35840;45.982;8.890;2023-04-28T04:10:08;98652.41;;;12.56;67.51
49949;BME280;35840;45.982;8.890;2023-04-28T04:12:38;98656.72;;;12.55;68.21
49949;BME280;35840;45.982;8.890;2023-04-28T04:15:05;98641.25;;;12.55;68.48
49949;BME280;35840;45.982;8.890;2023-04-28T04:17:33;98639.91;;;12.50;68.34
49949;BME280;35840;45.982;8.890;2023-04-28T04:20:00;98631.78;;;12.56;67.70
49949;BME280;35840;45.982;8.890;2023-04-28T04:22:26;98633.97;;;12.62;68.50
49949;BME280;35840;45.982;8.890;2023-04-28T04:24:53;98645.63;;;12.68;68.39
49949;BME280;35840;45.982;8.890;2023-04-28T04:27:21;98629.94;;;12.71;68.93
49949;BME280;35840;45.982;8.890;2023-04-28T04:29:47;98628.94;;;12.73;68.39
49949;BME280;35840;45.982;8.890;2023-04-28T04:32:14;98627.91;;;12.76;68.15
49949;BME280;35840;45.982;8.890;2023-04-28T04:34:41;98632.06;;;12.79;68.84
49949;BME280;35840;45.982;8.890;2023-04-28T04:37:09;98636.25;;;12.80;68.18
49949;BME280;35840;45.982;8.890;2023-04-28T04:39:43;98648.66;;;12.74;67.85
49949;BME280;35840;45.982;8.890;2023-04-28T04:42:09;98641.72;;;12.75;69.47
49949;BME280;35840;45.982;8.890;2023-04-28T04:45:12;98661.44;;;12.76;68.55
49949;BME280;35840;45.982;8.890;2023-04-28T04:47:40;98644.72;;;12.69;69.22
49949;BME280;35840;45.982;8.890;2023-04-28T04:50:07;98649.13;;;12.67;69.76
49949;BME280;35840;45.982;8.890;2023-04-28T04:52:34;98644.38;;;12.61;69.86
49949;BME280;35840;45.982;8.890;2023-04-28T04:55:02;98662.56;;;12.72;70.22
49949;BME280;35840;45.982;8.890;2023-04-28T04:57:29;98671.22;;;12.71;70.37
49949;BME280;35840;45.982;8.890;2023-04-28T05:00:05;98672.78;;;12.73;70.65
49949;BME280;35840;45.982;8.890;2023-04-28T05:02:32;98689.72;;;12.78;70.97
49949;BME280;35840;45.982;8.890;2023-04-28T05:05:00;98683.66;;;12.79;70.62
49949;BME280;35840;45.982;8.890;2023-04-28T05:07:51;98681.13;;;12.77;70.23
49949;BME280;35840;45.982;8.890;2023-04-28T05:10:19;98677.66;;;12.78;70.15
49949;BME280;35840;45.982;8.890;2023-04-28T05:12:47;98672.78;;;12.73;70.19
49949;BME280;35840;45.982;8.890;2023-04-28T05:15:16;98675.25;;;12.75;71.13
49949;BME280;35840;45.982;8.890;2023-04-28T05:17:56;98681.69;;;12.82;70.42
49949;BME280;35840;45.982;8.890;2023-04-28T05:20:23;98666.72;;;12.74;69.03
49949;BME280;35840;45.982;8.890;2023-04-28T05:22:50;98676.22;;;12.87;68.69
49949;BME280;35840;45.982;8.890;2023-04-28T05:25:17;98683.84;;;12.88;68.51
49949;BME280;35840;45.982;8.890;2023-04-28T05:27:44;98679.72;;;12.73;68.58
49949;BME280;35840;45.982;8.890;2023-04-28T05:30:11;98681.34;;;12.74;69.72
49949;BME280;35840;45.982;8.890;2023-04-28T05:32:37;98680.13;;;12.80;72.15
49949;BME280;35840;45.982;8.890;2023-04-28T05:35:05;98687.16;;;12.78;71.74
49949;BME280;35840;45.982;8.890;2023-04-28T05:37:32;98683.72;;;12.77;70.88
49949;BME280;35840;45.982;8.890;2023-04-28T05:39:59;98666.06;;;12.71;70.58
49949;BME280;35840;45.982;8.890;2023-04-28T05:42:26;98687.66;;;12.83;70.85
49949;BME280;35840;45.982;8.890;2023-04-28T05:44:52;98689.97;;;12.87;71.38
49949;BME280;35840;45.982;8.890;2023-04-28T05:47:20;98690.31;;;12.96;70.74
49949;BME280;35840;45.982;8.890;2023-04-28T05:49:47;98697.09;;;12.97;71.37
49949;BME280;35840;45.982;8.890;2023-04-28T05:52:13;98703.22;;;12.96;70.63
49949;BME280;35840;45.982;8.890;2023-04-28T05:54:40;98696.69;;;12.90;70.30
49949;BME280;35840;45.982;8.890;2023-04-28T05:57:07;98692.44;;;12.89;69.94
49949;BME280;35840;45.982;8.890;2023-04-28T05:59:34;98700.09;;;12.90;69.82
49949;BME280;35840;45.982;8.890;2023-04-28T06:02:01;98700.69;;;12.94;69.62
49949;BME280;35840;45.982;8.890;2023-04-28T06:04:28;98696.19;;;12.98;69.82
49949;BME280;35840;45.982;8.890;2023-04-28T06:06:56;98691.34;;;13.06;71.20
49949;BME280;35840;45.982;8.890;2023-04-28T06:09:23;98693.00;;;13.07;71.05
49949;BME280;35840;45.982;8.890;2023-04-28T06:11:51;98665.31;;;12.96;70.32
49949;BME280;35840;45.982;8.890;2023-04-28T06:14:18;98685.88;;;13.11;70.11
49949;BME280;35840;45.982;8.890;2023-04-28T06:16:46;98685.56;;;13.15;70.19
49949;BME280;35840;45.982;8.890;2023-04-28T06:19:13;98687.34;;;13.15;69.79
49949;BME280;35840;45.982;8.890;2023-04-28T06:21:41;98679.06;;;13.09;69.68
49949;BME280;35840;45.982;8.890;2023-04-28T06:24:07;98678.34;;;13.07;69.66
49949;BME280;35840;45.982;8.890;2023-04-28T06:26:38;98677.41;;;13.08;69.59
49949;BME280;35840;45.982;8.890;2023-04-28T06:29:08;98671.03;;;13.14;68.39
49949;BME280;35840;45.982;8.890;2023-04-28T06:31:34;98678.78;;;13.14;69.73
49949;BME280;35840;45.982;8.890;2023-04-28T06:34:01;98687.88;;;13.20;69.11
49949;BME280;35840;45.982;8.890;2023-04-28T06:36:28;98681.03;;;13.19;69.39
49949;BME280;35840;45.982;8.890;2023-04-28T06:38:56;98697.25;;;13.21;68.58
49949;BME280;35840;45.982;8.890;2023-04-28T06:41:22;98695.41;;;13.23;69.35
49949;BME280;35840;45.982;8.890;2023-04-28T06:43:51;98685.69;;;13.26;69.29
49949;BME280;35840;45.982;8.890;2023-04-28T06:46:26;98681.66;;;13.22;70.43
49949;BME280;35840;45.982;8.890;2023-04-28T06:48:53;98688.25;;;13.26;70.06
49949;BME280;35840;45.982;8.890;2023-04-28T06:51:20;98696.22;;;13.23;69.57
49949;BME280;35840;45.982;8.890;2023-04-28T06:53:47;98707.09;;;13.29;69.21
49949;BME280;35840;45.982;8.890;2023-04-28T06:56:16;98712.03;;;13.32;69.26
49949;BME280;35840;45.982;8.890;2023-04-28T06:58:43;98710.03;;;13.37;69.40
49949;BME280;35840;45.982;8.890;2023-04-28T07:01:10;98714.03;;;13.41;70.29
49949;BME280;35840;45.982;8.890;2023-04-28T07:03:37;98698.22;;;13.33;69.33
49949;BME280;35840;45.982;8.890;2023-04-28T07:06:05;98698.22;;;13.33;69.71
49949;BME280;35840;45.982;8.890;2023-04-28T07:08:33;98690.34;;;13.34;69.11
49949;BME280;35840;45.982;8.890;2023-04-28T07:10:59;98696.16;;;13.38;67.70
49949;BME280;35840;45.982;8.890;2023-04-28T07:13:30;98693.56;;;13.38;68.64
49949;BME280;35840;45.982;8.890;2023-04-28T07:15:57;98694.06;;;13.30;66.83
49949;BME280;35840;45.982;8.890;2023-04-28T07:18:24;98689.94;;;13.27;67.14
49949;BME280;35840;45.982;8.890;2023-04-28T07:20:50;98702.19;;;13.24;68.01
49949;BME280;35840;45.982;8.890;2023-04-28T07:23:17;98713.38;;;13.24;67.97
49949;BME280;35840;45.982;8.890;2023-04-28T07:25:44;98706.34;;;13.26;67.08
49949;BME280;35840;45.982;8.890;2023-04-28T07:28:11;98701.81;;;13.30;68.35
49949;BME280;35840;45.982;8.890;2023-04-28T07:30:39;98696.38;;;13.35;70.70
49949;BME280;35840;45.982;8.890;2023-04-28T07:33:06;98700.09;;;13.43;70.61
49949;BME280;35840;45.982;8.890;2023-04-28T07:35:32;98709.50;;;13.45;69.51
49949;BME280;35840;45.982;8.890;2023-04-28T07:38:00;98693.91;;;13.46;69.56
49949;BME280;35840;45.982;8.890;2023-04-28T07:40:27;98687.91;;;13.46;69.55
49949;BME280;35840;45.982;8.890;2023-04-28T07:42:54;98693.28;;;13.55;68.52
49949;BME280;35840;45.982;8.890;2023-04-28T07:45:20;98687.00;;;13.59;68.61
49949;BME280;35840;45.982;8.890;2023-04-28T07:47:47;98692.88;;;13.62;67.80
49949;BME280;35840;45.982;8.890;2023-04-28T07:50:14;98704.63;;;13.78;66.71
49949;BME280;35840;45.982;8.890;2023-04-28T07:52:41;98704.63;;;13.78;66.12
49949;BME280;35840;45.982;8.890;2023-04-28T07:55:09;98697.91;;;13.76;67.80
49949;BME280;35840;45.982;8.890;2023-04-28T07:57:35;98706.19;;;13.81;67.53
49949;BME280;35840;45.982;8.890;2023-04-28T08:00:02;98697.00;;;13.77;68.11
49949;BME280;35840;45.982;8.890;2023-04-28T08:02:37;98692.34;;;13.82;67.71
49949;BME280;35840;45.982;8.890;2023-04-28T08:05:04;98698.94;;;13.86;67.79
49949;BME280;35840;45.982;8.890;2023-04-28T08:07:33;98708.34;;;13.87;67.23
49949;BME280;35840;45.982;8.890;2023-04-28T08:10:00;98709.56;;;13.94;66.77
49949;BME280;35840;45.982;8.890;2023-04-28T08:12:27;98707.50;;;14.00;66.27
49949;BME280;35840;45.982;8.890;2023-04-28T08:14:55;98703.59;;;13.94;64.43
49949;BME280;35840;45.982;8.890;2023-04-28T08:17:21;98702.84;;;13.92;66.09
49949;BME280;35840;45.982;8.890;2023-04-28T08:19:48;98695.94;;;13.92;67.00
49949;BME280;35840;45.982;8.890;2023-04-28T08:22:15;98699.03;;;13.98;66.10
49949;BME280;35840;45.982;8.890;2023-04-28T08:24:42;98706.47;;;14.02;65.55
49949;BME280;35840;45.982;8.890;2023-04-28T08:27:09;98714.94;;;14.04;64.65
49949;BME280;35840;45.982;8.890;2023-04-28T08:29:36;98709.38;;;14.10;64.31
49949;BME280;35840;45.982;8.890;2023-04-28T08:32:03;98697.97;;;14.13;60.96
49949;BME280;35840;45.982;8.890;2023-04-28T08:34:32;98696.00;;;14.17;61.22
49949;BME280;35840;45.982;8.890;2023-04-28T08:36:59;98697.34;;;14.22;61.65
49949;BME280;35840;45.982;8.890;2023-04-28T08:39:26;98691.34;;;14.22;62.62
49949;BME280;35840;45.982;8.890;2023-04-28T08:41:53;98693.09;;;14.21;62.38
49949;BME280;35840;45.982;8.890;2023-04-28T08:44:20;98692.88;;;14.24;61.78
49949;BME280;35840;45.982;8.890;2023-04-28T08:46:51;98696.19;;;14.26;61.69
49949;BME280;35840;45.982;8.890;2023-04-28T08:49:22;98685.41;;;14.33;62.66
49949;BME280;35840;45.982;8.890;2023-04-28T08:51:59;98686.84;;;14.37;61.14
49949;BME280;35840;45.982;8.890;2023-04-28T08:54:34;98687.13;;;14.45;60.79
49949;BME280;35840;45.982;8.890;2023-04-28T08:57:02;98684.88;;;14.40;58.85
49949;BME280;35840;45.982;8.890;2023-04-28T08:59:30;98683.28;;;14.51;60.25
49949;BME280;35840;45.982;8.890;2023-04-28T09:01:57;98684.94;;;14.52;60.36
49949;BME280;35840;45.982;8.890;2023-04-28T09:04:25;98682.47;;;14.61;61.62
49949;BME280;35840;45.982;8.890;2023-04-28T09:06:53;98693.16;;;14.70;61.32
49949;BME280;35840;45.982;8.890;2023-04-28T09:09:25;98680.78;;;14.62;60.67
49949;BME280;35840;45.982;8.890;2023-04-28T09:11:57;98673.91;;;14.61;60.66
49949;BME280;35840;45.982;8.890;2023-04-28T09:14:26;98662.22;;;14.68;60.50
49949;BME280;35840;45.982;8.890;2023-04-28T09:16:53;98669.53;;;14.74;58.82
49949;BME280;35840;45.982;8.890;2023-04-28T09:19:20;98666.88;;;14.87;58.71
49949;BME280;35840;45.982;8.890;2023-04-28T09:21:56;98659.25;;;14.97;61.17
49949;BME280;35840;45.982;8.890;2023-04-28T09:24:39;98654.66;;;15.01;58.77
49949;BME280;35840;45.982;8.890;2023-04-28T09:27:09;98664.91;;;15.02;58.28
49949;BME280;35840;45.982;8.890;2023-04-28T09:29:37;98671.63;;;15.05;58.13
49949;BME280;35840;45.982;8.890;2023-04-28T09:32:13;98679.53;;;15.03;57.86
49949;BME280;35840;45.982;8.890;2023-04-28T09:34:51;98658.56;;;15.06;58.17
49949;BME280;35840;45.982;8.890;2023-04-28T09:37:21;98661.66;;;15.11;57.97
49949;BME280;35840;45.982;8.890;2023-04-28T09:39:52;98654.59;;;15.25;60.06
49949;BME280;35840;45.982;8.890;2023-04-28T09:42:38;98660.84;;;15.33;59.47
49949;BME280;35840;45.982;8.890;2023-04-28T09:45:08;98657.22;;;15.36;58.74
49949;BME280;35840;45.982;8.890;2023-04-28T09:47:38;98645.56;;;15.42;57.88
49949;BME280;35840;45.982;8.890;2023-04-28T09:50:10;98650.28;;;15.48;56.99
49949;BME280;35840;45.982;8.890;2023-04-28T09:52:40;98648.53;;;15.48;57.04
49949;BME280;35840;45.982;8.890;2023-04-28T09:55:07;98651.09;;;15.48;55.45
49949;BME280;35840;45.982;8.890;2023-04-28T09:57:35;98648.16;;;15.53;55.30
49949;BME280;35840;45.982;8.890;2023-04-28T10:00:04;98655.38;;;15.61;56.28
49949;BME280;35840;45.982;8.890;2023-04-28T10:02:36;98642.16;;;15.75;56.78
49949;BME280;35840;45.982;8.890;2023-04-28T10:05:07;98647.50;;;15.85;57.91
49949;BME280;35840;45.982;8.890;2023-04-28T10:07:35;98642.16;;;15.98;56.16
49949;BME280;35840;45.982;8.890;2023-04-28T10:10:03;98631.78;;;16.09;54.43
49949;BME280;35840;45.982;8.890;2023-04-28T10:12:31;98640.34;;;16.21;54.72
49949;BME280;35840;45.982;8.890;2023-04-28T10:14:58;98631.25;;;16.27;53.99
49949;BME280;35840;45.982;8.890;2023-04-28T10:17:25;98624.75;;;16.32;53.96
49949;BME280;35840;45.982;8.890;2023-04-28T10:19:53;98621.22;;;16.33;52.90
49949;BME280;35840;45.982;8.890;2023-04-28T10:27:39;98606.16;;;16.81;56.62
49949;BME280;35840;45.982;8.890;2023-04-28T10:30:12;98611.91;;;16.84;53.18
49949;BME280;35840;45.982;8.890;2023-04-28T10:33:23;98617.72;;;16.77;52.72
49949;BME280;35840;45.982;8.890;2023-04-28T10:35:52;98609.91;;;16.88;53.78
49949;BME280;35840;45.982;8.890;2023-04-28T10:38:19;98612.06;;;16.83;51.73
49949;BME280;35840;45.982;8.890;2023-04-28T10:40:51;98597.75;;;16.89;52.26
49949;BME280;35840;45.982;8.890;2023-04-28T10:58:43;98561.94;;;17.44;49.30
49949;BME280;35840;45.982;8.890;2023-04-28T11:08:45;98554.50;;;17.90;46.42
49949;BME280;35840;45.982;8.890;2023-04-28T11:11:17;98547.16;;;17.95;49.76
49949;BME280;35840;45.982;8.890;2023-04-28T11:13:47;98549.75;;;17.95;49.25
49949;BME280;35840;45.982;8.890;2023-04-28T11:16:18;98540.59;;;18.01;48.64
49949;BME280;35840;45.982;8.890;2023-04-28T11:18:51;98533.09;;;18.08;50.71
49949;BME280;35840;45.982;8.890;2023-04-28T11:21:22;98528.56;;;18.10;50.75
49949;BME280;35840;45.982;8.890;2023-04-28T11:23:50;98542.25;;;18.12;49.12
49949;BME280;35840;45.982;8.890;2023-04-28T11:26:18;98537.59;;;18.05;48.88
49949;BME280;35840;45.982;8.890;2023-04-28T11:28:49;98540.03;;;17.97;49.20
49949;BME280;35840;45.982;8.890;2023-04-28T11:31:17;98547.31;;;17.94;49.48
49949;BME280;35840;45.982;8.890;2023-04-28T11:33:57;98540.13;;;17.86;50.19
49949;BME280;35840;45.982;8.890;2023-04-28T11:36:29;98540.97;;;17.86;51.24
49949;BME280;35840;45.982;8.890;2023-04-28T11:38:58;98539.19;;;17.87;49.23
49949;BME280;35840;45.982;8.890;2023-04-28T11:41:25;98540.97;;;17.86;49.75
49949;BME280;35840;45.982;8.890;2023-04-28T11:43:52;98532.66;;;17.93;46.69
49949;BME280;35840;45.982;8.890;2023-04-28T11:46:21;98535.25;;;17.93;49.42
49949;BME280;35840;45.982;8.890;2023-04-28T11:48:59;98527.44;;;17.93;48.44
49949;BME280;35840;45.982;8.890;2023-04-28T11:51:30;98521.69;;;17.99;47.74
49949;BME280;35840;45.982;8.890;2023-04-28T11:53:58;98519.78;;;18.11;50.45
49949;BME280;35840;45.982;8.890;2023-04-28T11:56:26;98505.13;;;18.19;48.25
49949;BME280;35840;45.982;8.890;2023-04-28T11:59:05;98515.97;;;18.34;50.13
49949;BME280;35840;45.982;8.890;2023-04-28T12:01:52;98516.06;;;18.33;45.00
49949;BME280;35840;45.982;8.890;2023-04-28T12:07:03;98510.19;;;18.40;45.24
49949;BME280;35840;45.982;8.890;2023-04-28T12:09:32;98500.28;;;18.54;47.44
49949;BME280;35840;45.982;8.890;2023-04-28T12:12:09;98498.88;;;18.69;44.79
49949;BME280;35840;45.982;8.890;2023-04-28T12:15:00;98495.81;;;18.93;48.71
49949;BME280;35840;45.982;8.890;2023-04-28T12:20:36;98486.50;;;18.91;43.59
49949;BME280;35840;45.982;8.890;2023-04-28T12:23:03;98485.69;;;18.81;45.29
49949;BME280;35840;45.982;8.890;2023-04-28T12:25:31;98473.09;;;18.76;45.95
49949;BME280;35840;45.982;8.890;2023-04-28T12:28:00;98486.56;;;18.71;44.24
49949;BME280;35840;45.982;8.890;2023-04-28T12:30:30;98487.53;;;18.61;45.88
49949;BME280;35840;45.982;8.890;2023-04-28T12:32:57;98486.31;;;18.55;44.84
49949;BME280;35840;45.982;8.890;2023-04-28T12:35:25;98487.13;;;18.55;48.35
49949;BME280;35840;45.982;8.890;2023-04-28T12:37:53;98485.66;;;18.53;48.14
49949;BME280;35840;45.982;8.890;2023-04-28T12:40:21;98479.22;;;18.47;46.83
49949;BME280;35840;45.982;8.890;2023-04-28T12:42:48;98473.16;;;18.47;48.44
49949;BME280;35840;45.982;8.890;2023-04-28T12:45:16;98466.19;;;18.47;48.49
49949;BME280;35840;45.982;8.890;2023-04-28T12:47:44;98473.88;;;18.49;48.67
49949;BME280;35840;45.982;8.890;2023-04-28T12:50:15;98466.69;;;18.61;46.50
49949;BME280;35840;45.982;8.890;2023-04-28T12:52:42;98453.41;;;18.64;48.12
49949;BME280;35840;45.982;8.890;2023-04-28T12:55:09;98454.06;;;18.75;49.13
49949;BME280;35840;45.982;8.890;2023-04-28T12:57:36;98460.84;;;18.96;49.04
49949;BME280;35840;45.982;8.890;2023-04-28T13:00:06;98458.47;;;19.13;46.36
49949;BME280;35840;45.982;8.890;2023-04-28T13:02:33;98457.19;;;19.17;46.52
49949;BME280;35840;45.982;8.890;2023-04-28T13:05:01;98458.66;;;19.19;46.62
49949;BME280;35840;45.982;8.890;2023-04-28T13:07:29;98452.66;;;19.19;47.11
49949;BME280;35840;45.982;8.890;2023-04-28T13:09:56;98445.84;;;19.08;44.24
49949;BME280;35840;45.982;8.890;2023-04-28T13:12:24;98453.09;;;19.14;43.75
49949;BME280;35840;45.982;8.890;2023-04-28T13:14:52;98454.00;;;19.23;44.50
49949;BME280;35840;45.982;8.890;2023-04-28T13:17:18;98441.06;;;19.31;46.49
49949;BME280;35840;45.982;8.890;2023-04-28T13:19:45;98434.94;;;19.40;48.18
49949;BME280;35840;45.982;8.890;2023-04-28T13:22:13;98427.84;;;19.60;43.35
49949;BME280;35840;45.982;8.890;2023-04-28T13:24:41;98428.19;;;19.66;46.22
49949;BME280;35840;45.982;8.890;2023-04-28T13:27:08;98422.75;;;19.77;46.70
49949;BME280;35840;45.982;8.890;2023-04-28T13:29:36;98423.81;;;19.84;42.68
49949;BME280;35840;45.982;8.890;2023-04-28T13:32:03;98424.56;;;19.76;44.94
49949;BME280;35840;45.982;8.890;2023-04-28T13:34:31;98420.22;;;19.67;43.45
49949;BME280;35840;45.982;8.890;2023-04-28T13:36:58;98414.56;;;19.72;43.08
49949;BME280;35840;45.982;8.890;2023-04-28T13:39:25;98415.06;;;19.75;46.09
49949;BME280;35840;45.982;8.890;2023-04-28T13:41:52;98413.16;;;19.77;47.20